Wetterdaten: Donnerstag, 10.12.2015
Datum Zeit Temp. A. Feuchte A. Luftdruck Regen Wind Richtung Richtung Sonnenschein ET UV Solar Taupunkt Windchill Windben Empfang
10.12.2015 00:00 4,6 C 96 % 1039,6 hPa 0,0 l/m 5,7 km/h (1 Bft) W 263 0 min 0,000 mm 0,0 UV-I 0 W/m 4,0 C 4,6 C 11,3 km/h (2 Bft) 98,31 %
10.12.2015 00:05 4,6 C 96 % 1039,6 hPa 0,0 l/m 8,0 km/h (2 Bft) W-SW 254 0 min 0,000 mm 0,0 UV-I 0 W/m 4,0 C 3,2 C 12,9 km/h (3 Bft) 97,37 %
10.12.2015 00:10 4,6 C 96 % 1039,7 hPa 0,0 l/m 6,8 km/h (2 Bft) W 259 0 min 0,000 mm 0,0 UV-I 0 W/m 4,0 C 4,3 C 11,3 km/h (2 Bft) 99,17 %
10.12.2015 00:15 4,6 C 96 % 1039,7 hPa 0,0 l/m 5,9 km/h (2 Bft) W-SW 243 0 min 0,000 mm 0,0 UV-I 0 W/m 4,0 C 4,6 C 9,7 km/h (2 Bft) 97,87 %
10.12.2015 00:20 4,6 C 96 % 1039,6 hPa 0,0 l/m 6,7 km/h (2 Bft) W 278 0 min 0,000 mm 0,0 UV-I 0 W/m 4,0 C 4,3 C 12,9 km/h (3 Bft) 98,48 %
10.12.2015 00:25 4,6 C 96 % 1039,7 hPa 0,0 l/m 6,7 km/h (2 Bft) W 260 0 min 0,000 mm 0,0 UV-I 0 W/m 4,0 C 4,3 C 11,3 km/h (2 Bft) 95,87 %
10.12.2015 00:30 4,5 C 96 % 1039,6 hPa 0,0 l/m 6,4 km/h (2 Bft) W-SW 249 0 min 0,000 mm 0,0 UV-I 0 W/m 3,9 C 4,5 C 11,3 km/h (2 Bft) 95,73 %
10.12.2015 00:35 4,5 C 97 % 1039,6 hPa 0,0 l/m 6,8 km/h (2 Bft) W-SW 238 0 min 0,000 mm 0,0 UV-I 0 W/m 4,1 C 4,2 C 11,3 km/h (2 Bft) 95,54 %
10.12.2015 00:40 4,5 C 97 % 1039,5 hPa 0,0 l/m 6,6 km/h (2 Bft) W-SW 254 0 min 0,000 mm 0,0 UV-I 0 W/m 4,1 C 4,3 C 12,9 km/h (3 Bft) 97,58 %
10.12.2015 00:45 4,5 C 97 % 1039,6 hPa 0,0 l/m 6,5 km/h (2 Bft) W 263 0 min 0,000 mm 0,0 UV-I 0 W/m 4,1 C 4,4 C 11,3 km/h (2 Bft) 98,17 %
10.12.2015 00:50 4,4 C 97 % 1039,6 hPa 0,0 l/m 6,4 km/h (2 Bft) W-SW 250 0 min 0,000 mm 0,0 UV-I 0 W/m 4,0 C 4,4 C 11,3 km/h (2 Bft) 97,50 %
10.12.2015 00:55 4,4 C 97 % 1039,6 hPa 0,0 l/m 4,3 km/h (1 Bft) SW 227 0 min 0,000 mm 0,0 UV-I 0 W/m 4,0 C 4,4 C 6,4 km/h (2 Bft) 95,87 %
10.12.2015 01:00 4,4 C 97 % 1039,6 hPa 0,0 l/m 4,2 km/h (1 Bft) SW 225 0 min 0,000 mm 0,0 UV-I 0 W/m 4,0 C 4,4 C 8,0 km/h (2 Bft) 97,48 %
10.12.2015 01:05 4,4 C 97 % 1039,6 hPa 0,0 l/m 4,4 km/h (1 Bft) W-SW 237 0 min 0,000 mm 0,0 UV-I 0 W/m 4,0 C 4,4 C 9,7 km/h (2 Bft) 97,46 %
10.12.2015 01:10 4,4 C 97 % 1039,6 hPa 0,0 l/m 2,3 km/h (1 Bft) W-SW 256 0 min 0,000 mm 0,0 UV-I 0 W/m 4,0 C 4,4 C 6,4 km/h (2 Bft) 98,29 %
10.12.2015 01:15 4,3 C 96 % 1039,6 hPa 0,0 l/m 2,2 km/h (1 Bft) W-SW 256 0 min 0,000 mm 0,0 UV-I 0 W/m 3,7 C 4,3 C 4,8 km/h (1 Bft) 98,11 %
10.12.2015 01:20 4,4 C 96 % 1039,6 hPa 0,0 l/m 2,4 km/h (1 Bft) W-NW 284 0 min 0,000 mm 0,0 UV-I 0 W/m 3,8 C 4,4 C 4,8 km/h (1 Bft) 99,15 %
10.12.2015 01:25 4,3 C 96 % 1039,6 hPa 0,0 l/m 2,8 km/h (1 Bft) W-SW 243 0 min 0,000 mm 0,0 UV-I 0 W/m 3,7 C 4,3 C 6,4 km/h (2 Bft) 98,33 %
10.12.2015 01:30 4,3 C 96 % 1039,5 hPa 0,0 l/m 2,5 km/h (1 Bft) W-SW 243 0 min 0,000 mm 0,0 UV-I 0 W/m 3,7 C 4,3 C 4,8 km/h (1 Bft) 99,17 %
10.12.2015 01:35 4,3 C 97 % 1039,6 hPa 0,0 l/m 2,6 km/h (1 Bft) W 271 0 min 0,000 mm 0,0 UV-I 0 W/m 3,9 C 4,3 C 4,8 km/h (1 Bft) 99,17 %
10.12.2015 01:40 4,2 C 97 % 1039,6 hPa 0,0 l/m 3,5 km/h (1 Bft) W 264 0 min 0,000 mm 0,0 UV-I 0 W/m 3,8 C 4,2 C 6,4 km/h (2 Bft) 98,29 %
10.12.2015 01:45 4,2 C 97 % 1039,6 hPa 0,0 l/m 3,9 km/h (1 Bft) W-NW 288 0 min 0,000 mm 0,0 UV-I 0 W/m 3,8 C 4,2 C 6,4 km/h (2 Bft) 98,11 %
10.12.2015 01:50 4,2 C 97 % 1039,6 hPa 0,0 l/m 4,3 km/h (1 Bft) W-NW 290 0 min 0,000 mm 0,0 UV-I 0 W/m 3,8 C 4,2 C 9,7 km/h (2 Bft) 97,58 %
10.12.2015 01:55 4,1 C 97 % 1039,6 hPa 0,0 l/m 4,6 km/h (1 Bft) W 274 0 min 0,000 mm 0,0 UV-I 0 W/m 3,7 C 4,1 C 9,7 km/h (2 Bft) 100,00 %
10.12.2015 02:00 4,1 C 97 % 1039,7 hPa 0,0 l/m 4,8 km/h (1 Bft) W-SW 250 0 min 0,000 mm 0,0 UV-I 0 W/m 3,7 C 4,1 C 9,7 km/h (2 Bft) 100,00 %
10.12.2015 02:05 4,1 C 97 % 1039,6 hPa 0,0 l/m 4,9 km/h (1 Bft) W-SW 254 0 min 0,000 mm 0,0 UV-I 0 W/m 3,7 C 4,1 C 8,0 km/h (2 Bft) 98,29 %
10.12.2015 02:10 4,1 C 97 % 1039,6 hPa 0,0 l/m 5,3 km/h (1 Bft) W-SW 254 0 min 0,000 mm 0,0 UV-I 0 W/m 3,7 C 4,1 C 9,7 km/h (2 Bft) 100,00 %
10.12.2015 02:15 4,0 C 97 % 1039,7 hPa 0,0 l/m 4,8 km/h (1 Bft) W-SW 238 0 min 0,000 mm 0,0 UV-I 0 W/m 3,6 C 4,0 C 6,4 km/h (2 Bft) 100,00 %
10.12.2015 02:20 3,9 C 97 % 1039,7 hPa 0,0 l/m 4,1 km/h (1 Bft) W 260 0 min 0,000 mm 0,0 UV-I 0 W/m 3,5 C 3,9 C 6,4 km/h (2 Bft) 99,19 %
10.12.2015 02:25 3,8 C 97 % 1039,7 hPa 0,0 l/m 4,3 km/h (1 Bft) W-SW 245 0 min 0,000 mm 0,0 UV-I 0 W/m 3,4 C 3,8 C 6,4 km/h (2 Bft) 98,11 %
10.12.2015 02:30 3,7 C 97 % 1039,7 hPa 0,0 l/m 4,0 km/h (1 Bft) W-SW 241 0 min 0,000 mm 0,0 UV-I 0 W/m 3,3 C 3,7 C 6,4 km/h (2 Bft) 99,17 %
10.12.2015 02:35 3,7 C 97 % 1039,7 hPa 0,0 l/m 3,7 km/h (1 Bft) S-SW 202 0 min 0,000 mm 0,0 UV-I 0 W/m 3,3 C 3,7 C 6,4 km/h (2 Bft) 97,50 %
10.12.2015 02:40 3,6 C 97 % 1039,7 hPa 0,0 l/m 4,1 km/h (1 Bft) SW 223 0 min 0,000 mm 0,0 UV-I 0 W/m 3,2 C 3,6 C 8,0 km/h (2 Bft) 97,46 %
10.12.2015 02:45 3,6 C 97 % 1039,7 hPa 0,0 l/m 3,5 km/h (1 Bft) SW 234 0 min 0,000 mm 0,0 UV-I 0 W/m 3,2 C 3,6 C 6,4 km/h (2 Bft) 96,67 %
10.12.2015 02:50 3,6 C 97 % 1039,7 hPa 0,0 l/m 4,3 km/h (1 Bft) W-SW 238 0 min 0,000 mm 0,0 UV-I 0 W/m 3,2 C 3,6 C 8,0 km/h (2 Bft) 97,46 %
10.12.2015 02:55 3,5 C 97 % 1039,6 hPa 0,0 l/m 4,3 km/h (1 Bft) S-SW 213 0 min 0,000 mm 0,0 UV-I 0 W/m 3,1 C 3,5 C 6,4 km/h (2 Bft) 96,61 %
10.12.2015 03:00 3,3 C 97 % 1039,6 hPa 0,0 l/m 4,6 km/h (1 Bft) SW 229 0 min 0,000 mm 0,0 UV-I 0 W/m 2,9 C 3,3 C 8,0 km/h (2 Bft) 96,58 %
10.12.2015 03:05 3,3 C 97 % 1039,6 hPa 0,0 l/m 4,5 km/h (1 Bft) SW 215 0 min 0,000 mm 0,0 UV-I 0 W/m 2,9 C 3,3 C 8,0 km/h (2 Bft) 95,28 %
10.12.2015 03:10 3,2 C 97 % 1039,5 hPa 0,0 l/m 4,0 km/h (1 Bft) SW 222 0 min 0,000 mm 0,0 UV-I 0 W/m 2,8 C 3,2 C 4,8 km/h (1 Bft) 97,46 %
10.12.2015 03:15 3,1 C 97 % 1039,4 hPa 0,0 l/m 3,4 km/h (1 Bft) SW 222 0 min 0,000 mm 0,0 UV-I 0 W/m 2,7 C 3,1 C 4,8 km/h (1 Bft) 98,37 %
10.12.2015 03:20 2,7 C 97 % 1039,5 hPa 0,0 l/m 2,6 km/h (1 Bft) S-SW 213 0 min 0,000 mm 0,0 UV-I 0 W/m 2,3 C 2,7 C 4,8 km/h (1 Bft) 98,31 %
10.12.2015 03:25 2,7 C 97 % 1039,5 hPa 0,0 l/m 1,6 km/h (1 Bft) S-SW 213 0 min 0,000 mm 0,0 UV-I 0 W/m 2,3 C 2,7 C 4,8 km/h (1 Bft) 100,00 %
10.12.2015 03:30 2,7 C 98 % 1039,5 hPa 0,0 l/m 1,3 km/h (1 Bft) S-SW 212 0 min 0,000 mm 0,0 UV-I 0 W/m 2,4 C 2,7 C 3,2 km/h (1 Bft) 99,15 %
10.12.2015 03:35 2,6 C 98 % 1039,4 hPa 0,0 l/m 3,3 km/h (1 Bft) S-SW 197 0 min 0,000 mm 0,0 UV-I 0 W/m 2,3 C 2,6 C 4,8 km/h (1 Bft) 99,07 %
10.12.2015 03:40 2,3 C 97 % 1039,4 hPa 0,0 l/m 2,4 km/h (1 Bft) S-SW 192 0 min 0,000 mm 0,0 UV-I 0 W/m 1,9 C 2,3 C 4,8 km/h (1 Bft) 99,17 %
10.12.2015 03:45 2,3 C 98 % 1039,4 hPa 0,0 l/m 3,2 km/h (1 Bft) S-SW 203 0 min 0,000 mm 0,0 UV-I 0 W/m 2,0 C 2,3 C 4,8 km/h (1 Bft) 98,31 %
10.12.2015 03:50 2,3 C 98 % 1039,3 hPa 0,0 l/m 3,6 km/h (1 Bft) SW 215 0 min 0,000 mm 0,0 UV-I 0 W/m 2,0 C 2,3 C 6,4 km/h (2 Bft) 97,46 %
10.12.2015 03:55 2,3 C 98 % 1039,3 hPa 0,0 l/m 3,7 km/h (1 Bft) S-SW 196 0 min 0,000 mm 0,0 UV-I 0 W/m 2,0 C 2,3 C 4,8 km/h (1 Bft) 100,00 %
10.12.2015 04:00 2,3 C 98 % 1039,3 hPa 0,0 l/m 3,0 km/h (1 Bft) S-SW 208 0 min 0,000 mm 0,0 UV-I 0 W/m 2,0 C 2,3 C 4,8 km/h (1 Bft) 100,00 %
10.12.2015 04:05 2,2 C 98 % 1039,2 hPa 0,0 l/m 1,3 km/h (1 Bft) S-SW 208 0 min 0,000 mm 0,0 UV-I 0 W/m 1,9 C 2,2 C 3,2 km/h (1 Bft) 100,00 %
10.12.2015 04:10 2,3 C 98 % 1039,2 hPa 0,0 l/m 2,1 km/h (1 Bft) S-SW 207 0 min 0,000 mm 0,0 UV-I 0 W/m 2,0 C 2,3 C 3,2 km/h (1 Bft) 99,17 %
10.12.2015 04:15 2,2 C 98 % 1039,3 hPa 0,0 l/m 2,3 km/h (1 Bft) S-SW 208 0 min 0,000 mm 0,0 UV-I 0 W/m 1,9 C 2,2 C 3,2 km/h (1 Bft) 99,15 %
10.12.2015 04:20 2,2 C 98 % 1039,3 hPa 0,0 l/m 1,8 km/h (1 Bft) S-SW 207 0 min 0,000 mm 0,0 UV-I 0 W/m 1,9 C 2,2 C 3,2 km/h (1 Bft) 98,33 %
10.12.2015 04:25 2,1 C 98 % 1039,3 hPa 0,0 l/m 2,9 km/h (1 Bft) S-SW 207 0 min 0,000 mm 0,0 UV-I 0 W/m 1,8 C 2,1 C 4,8 km/h (1 Bft) 99,15 %
10.12.2015 04:30 2,0 C 98 % 1039,2 hPa 0,0 l/m 3,4 km/h (1 Bft) S-SW 207 0 min 0,000 mm 0,0 UV-I 0 W/m 1,7 C 2,0 C 4,8 km/h (1 Bft) 99,08 %
10.12.2015 04:35 2,0 C 98 % 1039,1 hPa 0,0 l/m 3,6 km/h (1 Bft) S 179 0 min 0,000 mm 0,0 UV-I 0 W/m 1,7 C 2,0 C 6,4 km/h (2 Bft) 98,29 %
10.12.2015 04:40 1,9 C 98 % 1039,1 hPa 0,0 l/m 3,2 km/h (1 Bft) S 171 0 min 0,000 mm 0,0 UV-I 0 W/m 1,6 C 1,9 C 8,0 km/h (2 Bft) 99,15 %
10.12.2015 04:45 1,9 C 98 % 1039,0 hPa 0,0 l/m 2,4 km/h (1 Bft) S 171 0 min 0,000 mm 0,0 UV-I 0 W/m 1,6 C 1,9 C 6,4 km/h (2 Bft) 95,76 %
10.12.2015 04:50 2,1 C 98 % 1039,0 hPa 0,0 l/m 0,6 km/h (0 Bft) S 171 0 min 0,000 mm 0,0 UV-I 0 W/m 1,8 C 2,1 C 1,6 km/h (1 Bft) 97,50 %
10.12.2015 04:55 2,1 C 98 % 1039,0 hPa 0,0 l/m 0,6 km/h (0 Bft) S 171 0 min 0,000 mm 0,0 UV-I 0 W/m 1,8 C 2,1 C 1,6 km/h (1 Bft) 96,69 %
10.12.2015 05:00 1,9 C 98 % 1039,0 hPa 0,0 l/m 0,9 km/h (0 Bft) S 171 0 min 0,000 mm 0,0 UV-I 0 W/m 1,6 C 1,9 C 3,2 km/h (1 Bft) 96,30 %
10.12.2015 05:05 1,8 C 98 % 1038,9 hPa 0,0 l/m 0,1 km/h (0 Bft) S 171 0 min 0,000 mm 0,0 UV-I 0 W/m 1,5 C 1,8 C 1,6 km/h (1 Bft) 97,52 %
10.12.2015 05:10 1,8 C 98 % 1038,9 hPa 0,0 l/m 0,1 km/h (0 Bft) S 171 0 min 0,000 mm 0,0 UV-I 0 W/m 1,5 C 1,8 C 1,6 km/h (1 Bft) 97,46 %
10.12.2015 05:15 1,8 C 98 % 1039,0 hPa 0,0 l/m 0,0 km/h (0 Bft) S 171 0 min 0,000 mm 0,0 UV-I 0 W/m 1,5 C 1,8 C 0,0 km/h (0 Bft) 97,44 %
10.12.2015 05:20 2,0 C 98 % 1039,0 hPa 0,0 l/m 0,4 km/h (0 Bft) S 171 0 min 0,000 mm 0,0 UV-I 0 W/m 1,7 C 2,0 C 1,6 km/h (1 Bft) 97,46 %
10.12.2015 05:26 1,9 C 98 % 1039,0 hPa 0,0 l/m 1,4 km/h (1 Bft) S 171 0 min 0,000 mm 0,0 UV-I 0 W/m 1,6 C 1,9 C 3,2 km/h (1 Bft) 98,58 %
10.12.2015 05:30 1,7 C 98 % 1039,0 hPa 0,0 l/m 1,6 km/h (1 Bft) S 180 0 min 0,000 mm 0,0 UV-I 0 W/m 1,4 C 1,7 C 3,2 km/h (1 Bft) 97,37 %
10.12.2015 05:35 1,7 C 98 % 1039,0 hPa 0,0 l/m 2,3 km/h (1 Bft) S 171 0 min 0,000 mm 0,0 UV-I 0 W/m 1,4 C 1,7 C 3,2 km/h (1 Bft) 100,00 %
10.12.2015 05:40 1,2 C 98 % 1039,0 hPa 0,0 l/m 2,1 km/h (1 Bft) S 171 0 min 0,000 mm 0,0 UV-I 0 W/m 0,9 C 1,2 C 3,2 km/h (1 Bft) 99,14 %
10.12.2015 05:45 0,8 C 98 % 1039,0 hPa 0,0 l/m 0,8 km/h (0 Bft) S 171 0 min 0,000 mm 0,0 UV-I 0 W/m 0,5 C 0,8 C 3,2 km/h (1 Bft) 98,33 %
10.12.2015 05:50 0,8 C 98 % 1039,0 hPa 0,0 l/m 0,0 km/h (0 Bft) S 171 0 min 0,000 mm 0,0 UV-I 0 W/m 0,5 C 0,8 C 0,0 km/h (0 Bft) 100,00 %
10.12.2015 05:55 0,8 C 98 % 1039,0 hPa 0,0 l/m 0,1 km/h (0 Bft) S 171 0 min 0,000 mm 0,0 UV-I 0 W/m 0,5 C 0,8 C 1,6 km/h (1 Bft) 99,17 %
10.12.2015 06:00 0,3 C 98 % 1039,0 hPa 0,0 l/m 0,7 km/h (0 Bft) S 171 0 min 0,000 mm 0,0 UV-I 0 W/m 0,0 C 0,3 C 1,6 km/h (1 Bft) 99,11 %
10.12.2015 06:05 0,3 C 98 % 1039,0 hPa 0,0 l/m 0,8 km/h (0 Bft) S 171 0 min 0,000 mm 0,0 UV-I 0 W/m 0,0 C 0,3 C 1,6 km/h (1 Bft) 100,00 %
10.12.2015 06:10 0,3 C 98 % 1039,0 hPa 0,0 l/m 0,6 km/h (0 Bft) S 171 0 min 0,000 mm 0,0 UV-I 0 W/m 0,0 C 0,3 C 1,6 km/h (1 Bft) 99,08 %
10.12.2015 06:15 0,4 C 98 % 1039,1 hPa 0,0 l/m 0,1 km/h (0 Bft) S 171 0 min 0,000 mm 0,0 UV-I 0 W/m 0,1 C 0,4 C 1,6 km/h (1 Bft) 97,56 %
10.12.2015 06:20 0,3 C 98 % 1039,1 hPa 0,0 l/m 0,5 km/h (0 Bft) S 171 0 min 0,000 mm 0,0 UV-I 0 W/m 0,0 C 0,3 C 1,6 km/h (1 Bft) 95,65 %
10.12.2015 06:25 0,3 C 98 % 1039,1 hPa 0,0 l/m 0,5 km/h (0 Bft) S 171 0 min 0,000 mm 0,0 UV-I 0 W/m 0,0 C 0,3 C 3,2 km/h (1 Bft) 100,00 %
10.12.2015 06:30 0,2 C 98 % 1039,1 hPa 0,0 l/m 2,5 km/h (1 Bft) S 171 0 min 0,000 mm 0,0 UV-I 0 W/m -0,1 C 0,2 C 3,2 km/h (1 Bft) 98,33 %
10.12.2015 06:35 0,6 C 98 % 1039,1 hPa 0,0 l/m 2,4 km/h (1 Bft) S 171 0 min 0,000 mm 0,0 UV-I 0 W/m 0,3 C 0,6 C 3,2 km/h (1 Bft) 100,00 %
10.12.2015 06:40 0,4 C 98 % 1039,1 hPa 0,0 l/m 0,8 km/h (0 Bft) S 171 0 min 0,000 mm 0,0 UV-I 0 W/m 0,1 C 0,4 C 3,2 km/h (1 Bft) 100,00 %
10.12.2015 06:45 0,5 C 98 % 1039,2 hPa 0,0 l/m 0,7 km/h (0 Bft) S 171 0 min 0,000 mm 0,0 UV-I 0 W/m 0,2 C 0,5 C 1,6 km/h (1 Bft) 99,13 %
10.12.2015 06:50 0,2 C 98 % 1039,2 hPa 0,0 l/m 1,9 km/h (1 Bft) S 171 0 min 0,000 mm 0,0 UV-I 0 W/m -0,1 C 0,2 C 3,2 km/h (1 Bft) 98,31 %
10.12.2015 06:55 0,2 C 98 % 1039,2 hPa 0,0 l/m 2,4 km/h (1 Bft) S 171 0 min 0,000 mm 0,0 UV-I 0 W/m -0,1 C 0,2 C 3,2 km/h (1 Bft) 99,12 %
10.12.2015 07:00 0,7 C 99 % 1039,2 hPa 0,0 l/m 1,7 km/h (1 Bft) S 171 0 min 0,000 mm 0,0 UV-I 0 W/m 0,6 C 0,7 C 3,2 km/h (1 Bft) 95,65 %
10.12.2015 07:05 1,2 C 99 % 1039,2 hPa 0,0 l/m 1,8 km/h (1 Bft) S 171 0 min 0,000 mm 0,0 UV-I 0 W/m 1,1 C 1,2 C 3,2 km/h (1 Bft) 95,24 %
10.12.2015 07:10 1,7 C 99 % 1039,2 hPa 0,0 l/m 1,0 km/h (0 Bft) S 175 0 min 0,000 mm 0,0 UV-I 0 W/m 1,6 C 1,7 C 3,2 km/h (1 Bft) 97,25 %
10.12.2015 07:15 2,0 C 99 % 1039,3 hPa 0,0 l/m 2,1 km/h (1 Bft) W-SW 254 0 min 0,000 mm 0,0 UV-I 0 W/m 1,9 C 2,0 C 4,8 km/h (1 Bft) 95,97 %
10.12.2015 07:20 2,0 C 99 % 1039,3 hPa 0,0 l/m 1,3 km/h (1 Bft) W-SW 248 0 min 0,000 mm 0,0 UV-I 0 W/m 1,9 C 2,0 C 3,2 km/h (1 Bft) 97,37 %
10.12.2015 07:25 1,9 C 99 % 1039,3 hPa 0,0 l/m 0,0 km/h (0 Bft) W-SW 248 0 min 0,000 mm 0,0 UV-I 0 W/m 1,8 C 1,9 C 1,6 km/h (1 Bft) 97,32 %
10.12.2015 07:30 1,8 C 99 % 1039,3 hPa 0,0 l/m 0,2 km/h (0 Bft) W-SW 248 0 min 0,000 mm 0,0 UV-I 0 W/m 1,7 C 1,8 C 1,6 km/h (1 Bft) 98,35 %
10.12.2015 07:35 2,1 C 99 % 1039,2 hPa 0,0 l/m 0,5 km/h (0 Bft) SW 222 0 min 0,000 mm 0,0 UV-I 0 W/m 2,0 C 2,1 C 3,2 km/h (1 Bft) 95,61 %
10.12.2015 07:40 2,2 C 99 % 1039,3 hPa 0,0 l/m 0,2 km/h (0 Bft) SW 221 0 min 0,000 mm 0,0 UV-I 0 W/m 2,1 C 2,2 C 1,6 km/h (1 Bft) 98,31 %
10.12.2015 07:45 2,1 C 99 % 1039,3 hPa 0,0 l/m 0,2 km/h (0 Bft) SW 221 0 min 0,000 mm 0,0 UV-I 0 W/m 2,0 C 2,1 C 1,6 km/h (1 Bft) 98,35 %
10.12.2015 07:50 2,0 C 99 % 1039,3 hPa 0,0 l/m 0,7 km/h (0 Bft) SW 221 0 min 0,000 mm 0,0 UV-I 0 W/m 1,9 C 2,0 C 1,6 km/h (1 Bft) 100,00 %
10.12.2015 07:55 2,4 C 99 % 1039,2 hPa 0,0 l/m 0,5 km/h (0 Bft) SW 221 0 min 0,000 mm 0,0 UV-I 4 W/m 2,3 C 2,4 C 1,6 km/h (1 Bft) 100,00 %
10.12.2015 08:00 2,2 C 99 % 1039,3 hPa 0,0 l/m 1,6 km/h (1 Bft) SW 221 0 min 0,000 mm 0,0 UV-I 6 W/m 2,1 C 2,2 C 3,2 km/h (1 Bft) 99,08 %
10.12.2015 08:05 1,7 C 99 % 1039,3 hPa 0,0 l/m 2,6 km/h (1 Bft) SW 221 0 min 0,000 mm 0,0 UV-I 9 W/m 1,6 C 1,7 C 4,8 km/h (1 Bft) 99,15 %
10.12.2015 08:10 1,7 C 99 % 1039,3 hPa 0,0 l/m 3,1 km/h (1 Bft) S 173 0 min 0,000 mm 0,0 UV-I 12 W/m 1,6 C 1,7 C 6,4 km/h (2 Bft) 98,26 %
10.12.2015 08:15 1,8 C 99 % 1039,3 hPa 0,0 l/m 1,1 km/h (1 Bft) S 171 0 min 0,000 mm 0,0 UV-I 14 W/m 1,7 C 1,8 C 3,2 km/h (1 Bft) 99,15 %
10.12.2015 08:20 1,9 C 99 % 1039,3 hPa 0,0 l/m 1,5 km/h (1 Bft) S 171 0 min 0,000 mm 0,0 UV-I 19 W/m 1,8 C 1,9 C 3,2 km/h (1 Bft) 97,00 %
10.12.2015 08:25 2,1 C 99 % 1039,3 hPa 0,0 l/m 2,9 km/h (1 Bft) S 171 0 min 0,000 mm 0,0 UV-I 21 W/m 2,0 C 2,1 C 6,4 km/h (2 Bft) 97,84 %
10.12.2015 08:30 2,2 C 99 % 1039,2 hPa 0,0 l/m 2,9 km/h (1 Bft) S 169 0 min 0,000 mm 0,0 UV-I 26 W/m 2,1 C 2,2 C 6,4 km/h (2 Bft) 100,00 %
10.12.2015 08:35 2,3 C 99 % 1039,2 hPa 0,0 l/m 1,1 km/h (1 Bft) S 169 0 min 0,000 mm 0,0 UV-I 33 W/m 2,2 C 2,3 C 3,2 km/h (1 Bft) 99,20 %
10.12.2015 08:40 2,1 C 99 % 1039,2 hPa 0,0 l/m 2,7 km/h (1 Bft) S 169 0 min 0,000 mm 0,0 UV-I 44 W/m 2,0 C 2,1 C 6,4 km/h (2 Bft) 100,00 %
10.12.2015 08:45 2,2 C 99 % 1039,2 hPa 0,0 l/m 2,2 km/h (1 Bft) S 169 0 min 0,000 mm 0,0 UV-I 67 W/m 2,1 C 2,2 C 6,4 km/h (2 Bft) 98,41 %
10.12.2015 08:50 2,3 C 99 % 1039,3 hPa 0,0 l/m 3,1 km/h (1 Bft) S 169 5 min 0,000 mm 0,0 UV-I 86 W/m 2,2 C 2,3 C 6,4 km/h (2 Bft) 98,94 %
10.12.2015 08:55 2,2 C 99 % 1039,2 hPa 0,0 l/m 3,2 km/h (1 Bft) S-SW 198 0 min 0,000 mm 0,0 UV-I 76 W/m 2,1 C 2,2 C 6,4 km/h (2 Bft) 100,00 %
10.12.2015 09:00 2,2 C 99 % 1039,3 hPa 0,0 l/m 3,1 km/h (1 Bft) S-SW 198 0 min 0,025 mm 0,0 UV-I 48 W/m 2,1 C 2,2 C 4,8 km/h (1 Bft) 98,31 %
10.12.2015 09:05 2,1 C 99 % 1039,3 hPa 0,0 l/m 3,5 km/h (1 Bft) S 175 0 min 0,000 mm 0,0 UV-I 86 W/m 2,0 C 2,1 C 6,4 km/h (2 Bft) 99,19 %
10.12.2015 09:10 1,9 C 99 % 1039,3 hPa 0,0 l/m 2,2 km/h (1 Bft) S 177 5 min 0,000 mm 0,0 UV-I 113 W/m 1,8 C 1,9 C 4,8 km/h (1 Bft) 98,04 %
10.12.2015 09:15 1,9 C 99 % 1039,3 hPa 0,0 l/m 2,4 km/h (1 Bft) S 178 5 min 0,000 mm 0,0 UV-I 109 W/m 1,8 C 1,9 C 4,8 km/h (1 Bft) 96,85 %
10.12.2015 09:20 1,9 C 99 % 1039,3 hPa 0,0 l/m 2,1 km/h (1 Bft) S 178 5 min 0,000 mm 0,0 UV-I 117 W/m 1,8 C 1,9 C 4,8 km/h (1 Bft) 96,67 %
10.12.2015 09:25 1,9 C 99 % 1039,3 hPa 0,0 l/m 3,1 km/h (1 Bft) S 178 5 min 0,000 mm 0,0 UV-I 133 W/m 1,8 C 1,9 C 4,8 km/h (1 Bft) 97,46 %
10.12.2015 09:30 2,2 C 98 % 1039,3 hPa 0,0 l/m 2,5 km/h (1 Bft) S 190 5 min 0,000 mm 0,0 UV-I 137 W/m 1,9 C 2,2 C 6,4 km/h (2 Bft) 98,21 %
10.12.2015 09:35 2,3 C 99 % 1039,3 hPa 0,0 l/m 3,8 km/h (1 Bft) S 190 5 min 0,000 mm 0,0 UV-I 138 W/m 2,2 C 2,3 C 6,4 km/h (2 Bft) 96,58 %
10.12.2015 09:40 2,4 C 99 % 1039,3 hPa 0,0 l/m 3,9 km/h (1 Bft) S-SW 192 5 min 0,000 mm 0,0 UV-I 151 W/m 2,3 C 2,4 C 6,4 km/h (2 Bft) 99,19 %
10.12.2015 09:45 2,7 C 99 % 1039,3 hPa 0,0 l/m 3,7 km/h (1 Bft) SW 216 5 min 0,000 mm 0,0 UV-I 177 W/m 2,6 C 2,7 C 8,0 km/h (2 Bft) 98,31 %
10.12.2015 09:50 2,7 C 99 % 1039,3 hPa 0,0 l/m 3,2 km/h (1 Bft) SW 227 5 min 0,000 mm 0,0 UV-I 160 W/m 2,6 C 2,7 C 6,4 km/h (2 Bft) 99,15 %
10.12.2015 09:55 2,8 C 99 % 1039,3 hPa 0,0 l/m 5,4 km/h (1 Bft) SW 227 5 min 0,000 mm 0,0 UV-I 167 W/m 2,7 C 2,8 C 8,0 km/h (2 Bft) 98,31 %
10.12.2015 10:00 2,9 C 99 % 1039,3 hPa 0,0 l/m 4,3 km/h (1 Bft) SW 233 0 min 0,051 mm 0,0 UV-I 136 W/m 2,8 C 2,9 C 8,0 km/h (2 Bft) 97,37 %
10.12.2015 10:05 3,0 C 99 % 1039,4 hPa 0,0 l/m 3,8 km/h (1 Bft) W-SW 240 0 min 0,000 mm 0,0 UV-I 113 W/m 2,9 C 3,0 C 6,4 km/h (2 Bft) 99,15 %
10.12.2015 10:10 3,1 C 98 % 1039,5 hPa 0,0 l/m 4,4 km/h (1 Bft) W-SW 242 0 min 0,000 mm 0,0 UV-I 107 W/m 2,8 C 3,1 C 8,0 km/h (2 Bft) 99,08 %
10.12.2015 10:15 3,2 C 98 % 1039,4 hPa 0,0 l/m 4,2 km/h (1 Bft) SW 234 0 min 0,000 mm 0,0 UV-I 116 W/m 2,9 C 3,2 C 8,0 km/h (2 Bft) 98,41 %
10.12.2015 10:20 3,2 C 98 % 1039,4 hPa 0,0 l/m 5,2 km/h (1 Bft) W-SW 244 0 min 0,000 mm 0,0 UV-I 112 W/m 2,9 C 3,2 C 8,0 km/h (2 Bft) 97,87 %
10.12.2015 10:25 3,2 C 98 % 1039,4 hPa 0,0 l/m 5,0 km/h (1 Bft) SW 231 0 min 0,000 mm 0,0 UV-I 86 W/m 2,9 C 3,2 C 8,0 km/h (2 Bft) 99,26 %
10.12.2015 10:30 3,2 C 97 % 1039,3 hPa 0,0 l/m 3,4 km/h (1 Bft) W-SW 243 0 min 0,000 mm 0,0 UV-I 82 W/m 2,8 C 3,2 C 6,4 km/h (2 Bft) 100,00 %
10.12.2015 10:35 3,2 C 97 % 1039,4 hPa 0,0 l/m 3,3 km/h (1 Bft) W-SW 251 0 min 0,000 mm 0,0 UV-I 81 W/m 2,8 C 3,2 C 6,4 km/h (2 Bft) 99,13 %
10.12.2015 10:40 3,2 C 97 % 1039,4 hPa 0,0 l/m 4,0 km/h (1 Bft) SW 219 0 min 0,000 mm 0,0 UV-I 66 W/m 2,8 C 3,2 C 6,4 km/h (2 Bft) 99,19 %
10.12.2015 10:45 3,1 C 97 % 1039,2 hPa 0,0 l/m 2,1 km/h (1 Bft) SW 219 0 min 0,000 mm 0,0 UV-I 63 W/m 2,7 C 3,1 C 4,8 km/h (1 Bft) 100,00 %
10.12.2015 10:50 3,1 C 96 % 1039,3 hPa 0,0 l/m 3,6 km/h (1 Bft) SW 225 0 min 0,000 mm 0,0 UV-I 67 W/m 2,5 C 3,1 C 8,0 km/h (2 Bft) 100,00 %
10.12.2015 10:55 3,1 C 97 % 1039,2 hPa 0,0 l/m 2,1 km/h (1 Bft) SW 225 0 min 0,000 mm 0,0 UV-I 74 W/m 2,7 C 3,1 C 4,8 km/h (1 Bft) 100,00 %
10.12.2015 11:00 3,0 C 97 % 1039,1 hPa 0,0 l/m 3,6 km/h (1 Bft) S 190 0 min 0,026 mm 0,0 UV-I 71 W/m 2,6 C 3,0 C 6,4 km/h (2 Bft) 95,87 %
10.12.2015 11:05 2,9 C 97 % 1039,0 hPa 0,0 l/m 1,9 km/h (1 Bft) S-SW 201 0 min 0,000 mm 0,0 UV-I 74 W/m 2,5 C 2,9 C 4,8 km/h (1 Bft) 97,46 %
10.12.2015 11:10 2,9 C 97 % 1039,1 hPa 0,0 l/m 1,4 km/h (1 Bft) S-SW 201 0 min 0,000 mm 0,0 UV-I 73 W/m 2,5 C 2,9 C 3,2 km/h (1 Bft) 96,58 %
10.12.2015 11:15 2,9 C 97 % 1039,0 hPa 0,0 l/m 1,2 km/h (1 Bft) S-SW 211 0 min 0,000 mm 0,0 UV-I 65 W/m 2,5 C 2,9 C 3,2 km/h (1 Bft) 97,25 %
10.12.2015 11:20 2,9 C 97 % 1038,9 hPa 0,0 l/m 0,8 km/h (0 Bft) S-SW 211 0 min 0,000 mm 0,0 UV-I 65 W/m 2,5 C 2,9 C 3,2 km/h (1 Bft) 97,67 %
10.12.2015 11:25 3,0 C 97 % 1038,9 hPa 0,0 l/m 1,2 km/h (1 Bft) W 277 0 min 0,000 mm 0,0 UV-I 69 W/m 2,6 C 3,0 C 3,2 km/h (1 Bft) 97,32 %
10.12.2015 11:30 2,9 C 97 % 1038,9 hPa 0,0 l/m 1,1 km/h (1 Bft) W-NW 291 0 min 0,000 mm 0,0 UV-I 70 W/m 2,5 C 2,9 C 4,8 km/h (1 Bft) 98,35 %
10.12.2015 11:35 2,9 C 97 % 1038,8 hPa 0,0 l/m 1,6 km/h (1 Bft) NW 319 0 min 0,000 mm 0,0 UV-I 67 W/m 2,5 C 2,9 C 4,8 km/h (1 Bft) 100,00 %
10.12.2015 11:40 2,9 C 97 % 1038,8 hPa 0,0 l/m 1,2 km/h (1 Bft) NW 310 0 min 0,000 mm 0,0 UV-I 68 W/m 2,5 C 2,9 C 4,8 km/h (1 Bft) 98,26 %
10.12.2015 11:45 2,8 C 97 % 1038,8 hPa 0,0 l/m 2,8 km/h (1 Bft) S-SW 211 0 min 0,000 mm 0,0 UV-I 71 W/m 2,4 C 2,8 C 6,4 km/h (2 Bft) 100,00 %
10.12.2015 11:50 2,7 C 98 % 1038,7 hPa 0,0 l/m 3,5 km/h (1 Bft) SW 217 0 min 0,000 mm 0,0 UV-I 63 W/m 2,4 C 2,7 C 9,7 km/h (2 Bft) 99,10 %
10.12.2015 11:55 2,8 C 98 % 1038,6 hPa 0,0 l/m 2,5 km/h (1 Bft) W 278 0 min 0,000 mm 0,0 UV-I 66 W/m 2,5 C 2,8 C 6,4 km/h (2 Bft) 100,00 %
10.12.2015 12:00 2,7 C 98 % 1038,6 hPa 0,0 l/m 3,1 km/h (1 Bft) W 260 0 min 0,025 mm 0,0 UV-I 64 W/m 2,4 C 2,7 C 9,7 km/h (2 Bft) 99,08 %
10.12.2015 12:05 2,7 C 98 % 1038,6 hPa 0,0 l/m 3,8 km/h (1 Bft) W-NW 282 0 min 0,000 mm 0,0 UV-I 65 W/m 2,4 C 2,7 C 6,4 km/h (2 Bft) 100,00 %
10.12.2015 12:10 2,6 C 98 % 1038,5 hPa 0,0 l/m 3,3 km/h (1 Bft) SW 236 0 min 0,000 mm 0,0 UV-I 66 W/m 2,3 C 2,6 C 4,8 km/h (1 Bft) 100,00 %
10.12.2015 12:15 2,5 C 98 % 1038,4 hPa 0,0 l/m 4,2 km/h (1 Bft) W 259 0 min 0,000 mm 0,0 UV-I 67 W/m 2,2 C 2,5 C 6,4 km/h (2 Bft) 100,00 %
10.12.2015 12:20 2,5 C 98 % 1038,4 hPa 0,0 l/m 0,9 km/h (0 Bft) W 259 0 min 0,000 mm 0,0 UV-I 61 W/m 2,2 C 2,5 C 3,2 km/h (1 Bft) 100,00 %
10.12.2015 12:25 2,5 C 98 % 1038,3 hPa 0,0 l/m 1,5 km/h (1 Bft) NW 317 0 min 0,000 mm 0,0 UV-I 63 W/m 2,2 C 2,5 C 3,2 km/h (1 Bft) 100,00 %
10.12.2015 12:30 2,5 C 98 % 1038,2 hPa 0,0 l/m 2,6 km/h (1 Bft) NO 36 0 min 0,000 mm 0,0 UV-I 62 W/m 2,2 C 2,5 C 4,8 km/h (1 Bft) 97,87 %
10.12.2015 12:35 2,4 C 98 % 1038,2 hPa 0,0 l/m 1,5 km/h (1 Bft) NO 36 0 min 0,000 mm 0,0 UV-I 56 W/m 2,1 C 2,4 C 3,2 km/h (1 Bft) 99,08 %
10.12.2015 12:40 2,4 C 98 % 1038,1 hPa 0,0 l/m 0,9 km/h (0 Bft) NO 36 0 min 0,000 mm 0,0 UV-I 53 W/m 2,1 C 2,4 C 3,2 km/h (1 Bft) 99,19 %
10.12.2015 12:45 2,4 C 98 % 1038,0 hPa 0,0 l/m 1,0 km/h (0 Bft) NO 36 0 min 0,000 mm 0,0 UV-I 53 W/m 2,1 C 2,4 C 3,2 km/h (1 Bft) 99,15 %
10.12.2015 12:50 2,5 C 99 % 1038,0 hPa 0,0 l/m 1,1 km/h (1 Bft) O-NO 59 0 min 0,000 mm 0,0 UV-I 48 W/m 2,4 C 2,5 C 4,8 km/h (1 Bft) 99,08 %
10.12.2015 12:55 2,5 C 99 % 1037,9 hPa 0,0 l/m 2,2 km/h (1 Bft) NO 55 0 min 0,000 mm 0,0 UV-I 49 W/m 2,4 C 2,5 C 3,2 km/h (1 Bft) 99,17 %
10.12.2015 13:00 2,5 C 99 % 1037,8 hPa 0,0 l/m 2,9 km/h (1 Bft) O-NO 63 0 min 0,025 mm 0,0 UV-I 52 W/m 2,4 C 2,5 C 4,8 km/h (1 Bft) 100,00 %
10.12.2015 13:05 2,5 C 99 % 1037,8 hPa 0,0 l/m 2,5 km/h (1 Bft) SO 129 0 min 0,000 mm 0,0 UV-I 49 W/m 2,4 C 2,5 C 4,8 km/h (1 Bft) 95,28 %
10.12.2015 13:10 2,4 C 99 % 1037,8 hPa 0,0 l/m 0,7 km/h (0 Bft) SO 129 0 min 0,000 mm 0,0 UV-I 51 W/m 2,3 C 2,4 C 3,2 km/h (1 Bft) 96,49 %
10.12.2015 13:15 2,4 C 99 % 1037,7 hPa 0,0 l/m 0,3 km/h (0 Bft) SO 140 0 min 0,000 mm 0,0 UV-I 51 W/m 2,3 C 2,4 C 3,2 km/h (1 Bft) 96,23 %
10.12.2015 13:20 2,4 C 99 % 1037,7 hPa 0,0 l/m 1,8 km/h (1 Bft) S 186 0 min 0,000 mm 0,0 UV-I 52 W/m 2,3 C 2,4 C 6,4 km/h (2 Bft) 97,39 %
10.12.2015 13:25 2,4 C 98 % 1037,5 hPa 0,0 l/m 1,4 km/h (1 Bft) S-SO 161 0 min 0,000 mm 0,0 UV-I 48 W/m 2,1 C 2,4 C 3,2 km/h (1 Bft) 96,21 %
10.12.2015 13:30 2,4 C 99 % 1037,4 hPa 0,0 l/m 3,3 km/h (1 Bft) S-SW 202 0 min 0,000 mm 0,0 UV-I 50 W/m 2,3 C 2,4 C 6,4 km/h (2 Bft) 97,32 %
10.12.2015 13:35 2,4 C 99 % 1037,3 hPa 0,0 l/m 2,7 km/h (1 Bft) S-SO 163 0 min 0,000 mm 0,0 UV-I 50 W/m 2,3 C 2,4 C 8,0 km/h (2 Bft) 97,37 %
10.12.2015 13:40 2,4 C 99 % 1037,3 hPa 0,0 l/m 3,5 km/h (1 Bft) SO 130 0 min 0,000 mm 0,0 UV-I 51 W/m 2,3 C 2,4 C 9,7 km/h (2 Bft) 98,39 %
10.12.2015 13:45 2,3 C 99 % 1037,2 hPa 0,0 l/m 0,9 km/h (0 Bft) SO 130 0 min 0,000 mm 0,0 UV-I 48 W/m 2,2 C 2,3 C 3,2 km/h (1 Bft) 99,11 %
10.12.2015 13:50 2,3 C 99 % 1037,1 hPa 0,0 l/m 3,2 km/h (1 Bft) S-SO 157 0 min 0,000 mm 0,0 UV-I 54 W/m 2,2 C 2,3 C 6,4 km/h (2 Bft) 97,37 %
10.12.2015 13:55 2,2 C 99 % 1037,1 hPa 0,0 l/m 1,6 km/h (1 Bft) S-SO 157 0 min 0,000 mm 0,0 UV-I 55 W/m 2,1 C 2,2 C 6,4 km/h (2 Bft) 97,37 %
10.12.2015 14:00 2,2 C 99 % 1037,0 hPa 0,0 l/m 1,6 km/h (1 Bft) S 180 0 min 0,025 mm 0,0 UV-I 51 W/m 2,1 C 2,2 C 3,2 km/h (1 Bft) 97,37 %
10.12.2015 14:05 2,3 C 99 % 1036,9 hPa 0,0 l/m 4,8 km/h (1 Bft) S-SW 202 0 min 0,000 mm 0,0 UV-I 47 W/m 2,2 C 2,3 C 9,7 km/h (2 Bft) 97,37 %
10.12.2015 14:15 2,3 C 99 % 1036,8 hPa 0,0 l/m 0,3 km/h (0 Bft) SO 140 0 min 0,001 mm 0,0 UV-I 45 W/m 2,2 C 2,3 C 1,6 km/h (1 Bft) 99,17 %
10.12.2015 14:20 2,4 C 99 % 1036,7 hPa 0,0 l/m 2,1 km/h (1 Bft) O-NO 61 0 min 0,000 mm 0,0 UV-I 41 W/m 2,3 C 2,4 C 4,8 km/h (1 Bft) 100,00 %
10.12.2015 14:25 2,4 C 99 % 1036,6 hPa 0,0 l/m 1,5 km/h (1 Bft) S-SO 150 0 min 0,000 mm 0,0 UV-I 42 W/m 2,3 C 2,4 C 3,2 km/h (1 Bft) 99,06 %
10.12.2015 14:30 2,4 C 99 % 1036,6 hPa 0,0 l/m 2,1 km/h (1 Bft) O-SO 113 0 min 0,000 mm 0,0 UV-I 41 W/m 2,3 C 2,4 C 6,4 km/h (2 Bft) 98,33 %
10.12.2015 14:35 2,4 C 99 % 1036,6 hPa 0,0 l/m 3,0 km/h (1 Bft) SO 126 0 min 0,000 mm 0,0 UV-I 39 W/m 2,3 C 2,4 C 8,0 km/h (2 Bft) 100,00 %
10.12.2015 14:40 2,4 C 99 % 1036,6 hPa 0,0 l/m 0,0 km/h (0 Bft) SO 135 0 min 0,000 mm 0,0 UV-I 37 W/m 2,3 C 2,4 C 1,6 km/h (1 Bft) 99,12 %
10.12.2015 14:45 2,4 C 99 % 1036,6 hPa 0,0 l/m 0,1 km/h (0 Bft) SO 126 0 min 0,000 mm 0,0 UV-I 34 W/m 2,3 C 2,4 C 1,6 km/h (1 Bft) 98,77 %
10.12.2015 14:50 2,6 C 98 % 1036,6 hPa 0,0 l/m 0,2 km/h (0 Bft) SO 126 0 min 0,000 mm 0,0 UV-I 29 W/m 2,3 C 2,6 C 1,6 km/h (1 Bft) 98,20 %
10.12.2015 14:55 2,6 C 98 % 1036,5 hPa 0,0 l/m 2,0 km/h (1 Bft) O-NO 61 0 min 0,000 mm 0,0 UV-I 27 W/m 2,3 C 2,6 C 6,4 km/h (2 Bft) 100,00 %
10.12.2015 15:00 2,7 C 98 % 1036,5 hPa 0,0 l/m 3,0 km/h (1 Bft) N 11 0 min 0,025 mm 0,0 UV-I 21 W/m 2,4 C 2,7 C 6,4 km/h (2 Bft) 96,61 %
10.12.2015 15:05 2,6 C 98 % 1036,4 hPa 0,0 l/m 5,5 km/h (1 Bft) NO 47 0 min 0,000 mm 0,0 UV-I 18 W/m 2,3 C 2,6 C 11,3 km/h (2 Bft) 100,00 %
10.12.2015 15:10 2,4 C 98 % 1036,3 hPa 0,0 l/m 2,8 km/h (1 Bft) NO 49 0 min 0,000 mm 0,0 UV-I 19 W/m 2,1 C 2,4 C 6,4 km/h (2 Bft) 96,21 %
10.12.2015 15:15 2,4 C 98 % 1036,3 hPa 0,0 l/m 0,6 km/h (0 Bft) NO 49 0 min 0,000 mm 0,0 UV-I 18 W/m 2,1 C 2,4 C 1,6 km/h (1 Bft) 95,93 %
10.12.2015 15:20 2,4 C 98 % 1036,3 hPa 0,0 l/m 0,3 km/h (0 Bft) NO 49 0 min 0,000 mm 0,0 UV-I 17 W/m 2,1 C 2,4 C 1,6 km/h (1 Bft) 97,46 %
10.12.2015 15:25 2,4 C 98 % 1036,3 hPa 0,0 l/m 0,2 km/h (0 Bft) NO 49 0 min 0,000 mm 0,0 UV-I 16 W/m 2,1 C 2,4 C 1,6 km/h (1 Bft) 98,26 %
10.12.2015 15:30 2,5 C 98 % 1036,2 hPa 0,0 l/m 0,2 km/h (0 Bft) NO 49 0 min 0,000 mm 0,0 UV-I 16 W/m 2,2 C 2,5 C 1,6 km/h (1 Bft) 96,49 %
10.12.2015 15:35 2,6 C 98 % 1036,2 hPa 0,0 l/m 1,9 km/h (1 Bft) N-NO 32 0 min 0,000 mm 0,0 UV-I 13 W/m 2,3 C 2,6 C 6,4 km/h (2 Bft) 97,52 %
10.12.2015 15:40 2,6 C 98 % 1036,1 hPa 0,0 l/m 2,0 km/h (1 Bft) N 5 0 min 0,000 mm 0,0 UV-I 11 W/m 2,3 C 2,6 C 6,4 km/h (2 Bft) 97,32 %
10.12.2015 15:45 2,6 C 98 % 1036,1 hPa 0,0 l/m 2,0 km/h (1 Bft) N 360 0 min 0,000 mm 0,0 UV-I 10 W/m 2,3 C 2,6 C 6,4 km/h (2 Bft) 99,19 %
10.12.2015 15:50 2,6 C 98 % 1036,0 hPa 0,0 l/m 0,9 km/h (0 Bft) NW 324 0 min 0,000 mm 0,0 UV-I 9 W/m 2,3 C 2,6 C 3,2 km/h (1 Bft) 97,32 %
10.12.2015 15:55 2,6 C 98 % 1035,9 hPa 0,0 l/m 0,7 km/h (0 Bft) N-NW 336 0 min 0,000 mm 0,0 UV-I 7 W/m 2,3 C 2,6 C 3,2 km/h (1 Bft) 100,00 %
10.12.2015 16:00 2,6 C 98 % 1035,9 hPa 0,0 l/m 0,6 km/h (0 Bft) N-NW 340 0 min 0,000 mm 0,0 UV-I 5 W/m 2,3 C 2,6 C 3,2 km/h (1 Bft) 99,19 %
10.12.2015 16:05 2,6 C 98 % 1035,9 hPa 0,0 l/m 0,8 km/h (0 Bft) N 350 0 min 0,000 mm 0,0 UV-I 1 W/m 2,3 C 2,6 C 3,2 km/h (1 Bft) 100,00 %
10.12.2015 16:10 2,7 C 98 % 1035,9 hPa 0,0 l/m 0,2 km/h (0 Bft) N 350 0 min 0,000 mm 0,0 UV-I 0 W/m 2,4 C 2,7 C 1,6 km/h (1 Bft) 98,41 %
10.12.2015 16:15 2,7 C 98 % 1035,9 hPa 0,0 l/m 0,8 km/h (0 Bft) N-NO 31 0 min 0,000 mm 0,0 UV-I 0 W/m 2,4 C 2,7 C 4,8 km/h (1 Bft) 100,00 %
10.12.2015 16:20 2,7 C 98 % 1035,8 hPa 0,0 l/m 1,2 km/h (1 Bft) N-NO 25 0 min 0,000 mm 0,0 UV-I 0 W/m 2,4 C 2,7 C 4,8 km/h (1 Bft) 98,26 %
10.12.2015 16:25 2,7 C 98 % 1035,8 hPa 0,0 l/m 2,2 km/h (1 Bft) N-NO 16 0 min 0,000 mm 0,0 UV-I 0 W/m 2,4 C 2,7 C 4,8 km/h (1 Bft) 98,25 %
10.12.2015 16:30 2,7 C 98 % 1035,8 hPa 0,0 l/m 3,3 km/h (1 Bft) N-NO 28 0 min 0,000 mm 0,0 UV-I 0 W/m 2,4 C 2,7 C 6,4 km/h (2 Bft) 97,64 %
10.12.2015 16:35 2,7 C 97 % 1035,7 hPa 0,0 l/m 3,6 km/h (1 Bft) N 11 0 min 0,000 mm 0,0 UV-I 0 W/m 2,3 C 2,7 C 9,7 km/h (2 Bft) 100,00 %
10.12.2015 16:40 2,7 C 97 % 1035,6 hPa 0,0 l/m 4,2 km/h (1 Bft) NO 34 0 min 0,000 mm 0,0 UV-I 0 W/m 2,3 C 2,7 C 6,4 km/h (2 Bft) 99,17 %
10.12.2015 16:45 2,7 C 97 % 1035,6 hPa 0,0 l/m 4,0 km/h (1 Bft) N-NO 27 0 min 0,000 mm 0,0 UV-I 0 W/m 2,3 C 2,7 C 6,4 km/h (2 Bft) 99,23 %
10.12.2015 16:50 2,8 C 97 % 1035,6 hPa 0,0 l/m 2,2 km/h (1 Bft) N-NO 13 0 min 0,000 mm 0,0 UV-I 0 W/m 2,4 C 2,8 C 6,4 km/h (2 Bft) 95,73 %
10.12.2015 16:55 2,8 C 97 % 1035,6 hPa 0,0 l/m 3,8 km/h (1 Bft) N-NO 20 0 min 0,000 mm 0,0 UV-I 0 W/m 2,4 C 2,8 C 6,4 km/h (2 Bft) 100,00 %
10.12.2015 17:00 2,7 C 97 % 1035,6 hPa 0,0 l/m 3,0 km/h (1 Bft) NO 34 0 min 0,000 mm 0,0 UV-I 0 W/m 2,3 C 2,7 C 6,4 km/h (2 Bft) 100,00 %
10.12.2015 17:05 2,8 C 97 % 1035,5 hPa 0,0 l/m 3,8 km/h (1 Bft) NO 37 0 min 0,000 mm 0,0 UV-I 0 W/m 2,4 C 2,8 C 4,8 km/h (1 Bft) 99,21 %
10.12.2015 17:10 2,8 C 97 % 1035,6 hPa 0,0 l/m 2,0 km/h (1 Bft) NO 37 0 min 0,000 mm 0,0 UV-I 0 W/m 2,4 C 2,8 C 3,2 km/h (1 Bft) 96,30 %
10.12.2015 17:20 2,8 C 97 % 1035,5 hPa 0,0 l/m 4,0 km/h (1 Bft) NO 42 0 min 0,000 mm 0,0 UV-I 0 W/m 2,4 C 2,8 C 8,0 km/h (2 Bft) 98,74 %
10.12.2015 17:25 2,9 C 96 % 1035,6 hPa 0,0 l/m 4,2 km/h (1 Bft) NO 37 0 min 0,000 mm 0,0 UV-I 0 W/m 2,3 C 2,9 C 6,4 km/h (2 Bft) 95,87 %
10.12.2015 17:30 2,9 C 96 % 1035,6 hPa 0,0 l/m 2,5 km/h (1 Bft) N-NO 24 0 min 0,000 mm 0,0 UV-I 0 W/m 2,3 C 2,9 C 8,0 km/h (2 Bft) 95,61 %
10.12.2015 17:35 2,9 C 96 % 1035,5 hPa 0,0 l/m 4,2 km/h (1 Bft) NO 40 0 min 0,000 mm 0,0 UV-I 0 W/m 2,3 C 2,9 C 6,4 km/h (2 Bft) 95,76 %
10.12.2015 17:40 2,9 C 95 % 1035,6 hPa 0,0 l/m 6,1 km/h (2 Bft) NO 45 0 min 0,000 mm 0,0 UV-I 0 W/m 2,2 C 2,9 C 9,7 km/h (2 Bft) 96,75 %
10.12.2015 17:45 2,9 C 95 % 1035,4 hPa 0,0 l/m 4,7 km/h (1 Bft) NO 35 0 min 0,000 mm 0,0 UV-I 0 W/m 2,2 C 2,9 C 8,0 km/h (2 Bft) 98,26 %
10.12.2015 17:50 2,9 C 95 % 1035,4 hPa 0,0 l/m 5,8 km/h (2 Bft) O-NO 58 0 min 0,000 mm 0,0 UV-I 0 W/m 2,2 C 2,9 C 8,0 km/h (2 Bft) 97,39 %
10.12.2015 17:55 2,9 C 95 % 1035,4 hPa 0,0 l/m 4,7 km/h (1 Bft) NO 44 0 min 0,000 mm 0,0 UV-I 0 W/m 2,2 C 2,9 C 8,0 km/h (2 Bft) 97,50 %
10.12.2015 18:00 2,9 C 95 % 1035,3 hPa 0,0 l/m 5,7 km/h (1 Bft) N-NO 30 0 min 0,000 mm 0,0 UV-I 0 W/m 2,2 C 2,9 C 9,7 km/h (2 Bft) 100,00 %
10.12.2015 18:05 2,9 C 95 % 1035,4 hPa 0,0 l/m 5,1 km/h (1 Bft) N-NO 21 0 min 0,000 mm 0,0 UV-I 0 W/m 2,2 C 2,9 C 8,0 km/h (2 Bft) 98,17 %
10.12.2015 18:10 2,9 C 95 % 1035,4 hPa 0,0 l/m 5,3 km/h (1 Bft) NO 53 0 min 0,000 mm 0,0 UV-I 0 W/m 2,2 C 2,9 C 9,7 km/h (2 Bft) 98,48 %
10.12.2015 18:15 2,9 C 95 % 1035,4 hPa 0,0 l/m 3,3 km/h (1 Bft) NO 54 0 min 0,000 mm 0,0 UV-I 0 W/m 2,2 C 2,9 C 6,4 km/h (2 Bft) 99,08 %
10.12.2015 18:20 2,9 C 95 % 1035,4 hPa 0,0 l/m 2,6 km/h (1 Bft) NO 53 0 min 0,000 mm 0,0 UV-I 0 W/m 2,2 C 2,9 C 6,4 km/h (2 Bft) 98,35 %
10.12.2015 18:25 2,9 C 95 % 1035,4 hPa 0,0 l/m 4,7 km/h (1 Bft) N-NO 30 0 min 0,000 mm 0,0 UV-I 0 W/m 2,2 C 2,9 C 11,3 km/h (2 Bft) 99,12 %
10.12.2015 18:30 2,9 C 95 % 1035,4 hPa 0,0 l/m 5,5 km/h (1 Bft) N-NO 32 0 min 0,000 mm 0,0 UV-I 0 W/m 2,2 C 2,9 C 9,7 km/h (2 Bft) 100,00 %
10.12.2015 18:35 2,9 C 95 % 1035,4 hPa 0,0 l/m 2,0 km/h (1 Bft) N-NO 17 0 min 0,000 mm 0,0 UV-I 0 W/m 2,2 C 2,9 C 6,4 km/h (2 Bft) 100,00 %
10.12.2015 18:40 2,8 C 95 % 1035,3 hPa 0,0 l/m 1,2 km/h (1 Bft) NO 36 0 min 0,000 mm 0,0 UV-I 0 W/m 2,1 C 2,8 C 6,4 km/h (2 Bft) 100,00 %
10.12.2015 18:45 2,8 C 95 % 1035,3 hPa 0,0 l/m 2,2 km/h (1 Bft) N-NO 15 0 min 0,000 mm 0,0 UV-I 0 W/m 2,1 C 2,8 C 6,4 km/h (2 Bft) 99,06 %
10.12.2015 18:50 2,8 C 96 % 1035,3 hPa 0,0 l/m 1,9 km/h (1 Bft) N-NO 13 0 min 0,000 mm 0,0 UV-I 0 W/m 2,2 C 2,8 C 4,8 km/h (1 Bft) 100,00 %
10.12.2015 18:55 2,8 C 96 % 1035,4 hPa 0,0 l/m 1,8 km/h (1 Bft) N 11 0 min 0,000 mm 0,0 UV-I 0 W/m 2,2 C 2,8 C 6,4 km/h (2 Bft) 99,19 %
10.12.2015 19:00 2,8 C 96 % 1035,4 hPa 0,0 l/m 4,1 km/h (1 Bft) N-NO 28 0 min 0,000 mm 0,0 UV-I 0 W/m 2,2 C 2,8 C 8,0 km/h (2 Bft) 100,00 %
10.12.2015 19:05 2,8 C 95 % 1035,3 hPa 0,0 l/m 4,1 km/h (1 Bft) NO 44 0 min 0,000 mm 0,0 UV-I 0 W/m 2,1 C 2,8 C 6,4 km/h (2 Bft) 99,03 %
10.12.2015 19:10 2,8 C 95 % 1035,2 hPa 0,0 l/m 4,3 km/h (1 Bft) NO 50 0 min 0,000 mm 0,0 UV-I 0 W/m 2,1 C 2,8 C 6,4 km/h (2 Bft) 100,00 %
10.12.2015 19:15 2,8 C 95 % 1035,1 hPa 0,0 l/m 3,8 km/h (1 Bft) O 82 0 min 0,000 mm 0,0 UV-I 0 W/m 2,1 C 2,8 C 6,4 km/h (2 Bft) 99,21 %
10.12.2015 19:20 2,8 C 95 % 1035,2 hPa 0,0 l/m 4,1 km/h (1 Bft) O-NO 59 0 min 0,000 mm 0,0 UV-I 0 W/m 2,1 C 2,8 C 6,4 km/h (2 Bft) 98,26 %
10.12.2015 19:25 2,8 C 95 % 1035,2 hPa 0,0 l/m 3,3 km/h (1 Bft) NO 41 0 min 0,000 mm 0,0 UV-I 0 W/m 2,1 C 2,8 C 6,4 km/h (2 Bft) 97,32 %
10.12.2015 19:30 2,8 C 95 % 1035,0 hPa 0,0 l/m 2,3 km/h (1 Bft) NO 40 0 min 0,000 mm 0,0 UV-I 0 W/m 2,1 C 2,8 C 4,8 km/h (1 Bft) 97,44 %
10.12.2015 19:35 2,7 C 96 % 1035,0 hPa 0,0 l/m 3,1 km/h (1 Bft) O-NO 73 0 min 0,000 mm 0,0 UV-I 0 W/m 2,1 C 2,7 C 4,8 km/h (1 Bft) 97,39 %
10.12.2015 19:40 2,7 C 96 % 1035,0 hPa 0,0 l/m 3,6 km/h (1 Bft) O-NO 57 0 min 0,000 mm 0,0 UV-I 0 W/m 2,1 C 2,7 C 4,8 km/h (1 Bft) 96,83 %
10.12.2015 19:45 2,7 C 96 % 1034,9 hPa 0,0 l/m 4,9 km/h (1 Bft) O-NO 67 0 min 0,000 mm 0,0 UV-I 0 W/m 2,1 C 2,7 C 8,0 km/h (2 Bft) 98,11 %
10.12.2015 19:50 2,7 C 95 % 1034,7 hPa 0,0 l/m 4,5 km/h (1 Bft) O-NO 67 0 min 0,000 mm 0,0 UV-I 0 W/m 2,0 C 2,7 C 8,0 km/h (2 Bft) 95,97 %
10.12.2015 19:55 2,7 C 95 % 1034,7 hPa 0,0 l/m 3,5 km/h (1 Bft) O-NO 65 0 min 0,000 mm 0,0 UV-I 0 W/m 2,0 C 2,7 C 4,8 km/h (1 Bft) 98,29 %
10.12.2015 20:00 2,7 C 95 % 1034,6 hPa 0,0 l/m 5,5 km/h (1 Bft) O 80 0 min 0,000 mm 0,0 UV-I 0 W/m 2,0 C 2,7 C 11,3 km/h (2 Bft) 98,21 %
10.12.2015 20:05 2,7 C 95 % 1034,6 hPa 0,0 l/m 5,5 km/h (1 Bft) O-NO 64 0 min 0,000 mm 0,0 UV-I 0 W/m 2,0 C 2,7 C 8,0 km/h (2 Bft) 98,39 %
10.12.2015 20:10 2,7 C 96 % 1034,6 hPa 0,0 l/m 4,1 km/h (1 Bft) NO 50 0 min 0,000 mm 0,0 UV-I 0 W/m 2,1 C 2,7 C 6,4 km/h (2 Bft) 99,10 %
10.12.2015 20:15 2,7 C 94 % 1034,6 hPa 0,0 l/m 5,1 km/h (1 Bft) O 97 0 min 0,000 mm 0,0 UV-I 0 W/m 1,8 C 2,7 C 8,0 km/h (2 Bft) 99,17 %
10.12.2015 20:20 2,7 C 95 % 1034,5 hPa 0,0 l/m 4,5 km/h (1 Bft) O-NO 61 0 min 0,000 mm 0,0 UV-I 0 W/m 2,0 C 2,7 C 6,4 km/h (2 Bft) 97,39 %
10.12.2015 20:25 2,7 C 95 % 1034,5 hPa 0,0 l/m 4,9 km/h (1 Bft) O-NO 57 0 min 0,000 mm 0,0 UV-I 0 W/m 2,0 C 2,7 C 9,7 km/h (2 Bft) 97,50 %
10.12.2015 20:30 2,7 C 95 % 1034,5 hPa 0,0 l/m 3,9 km/h (1 Bft) N-NO 32 0 min 0,000 mm 0,0 UV-I 0 W/m 2,0 C 2,7 C 6,4 km/h (2 Bft) 96,43 %
10.12.2015 20:35 2,6 C 95 % 1034,4 hPa 0,0 l/m 5,4 km/h (1 Bft) O-NO 71 0 min 0,000 mm 0,0 UV-I 0 W/m 1,9 C 2,6 C 11,3 km/h (2 Bft) 97,50 %
10.12.2015 20:40 2,6 C 94 % 1034,3 hPa 0,0 l/m 5,6 km/h (1 Bft) NO 55 0 min 0,000 mm 0,0 UV-I 0 W/m 1,7 C 2,6 C 11,3 km/h (2 Bft) 100,00 %
10.12.2015 20:45 2,6 C 94 % 1034,4 hPa 0,0 l/m 5,0 km/h (1 Bft) N-NO 32 0 min 0,000 mm 0,0 UV-I 0 W/m 1,7 C 2,6 C 11,3 km/h (2 Bft) 97,32 %
10.12.2015 20:50 2,5 C 94 % 1034,3 hPa 0,0 l/m 6,3 km/h (2 Bft) NO 53 0 min 0,000 mm 0,0 UV-I 0 W/m 1,6 C 2,5 C 9,7 km/h (2 Bft) 99,15 %
10.12.2015 20:55 2,5 C 95 % 1034,3 hPa 0,0 l/m 4,4 km/h (1 Bft) N-NO 24 0 min 0,000 mm 0,0 UV-I 0 W/m 1,8 C 2,5 C 8,0 km/h (2 Bft) 99,17 %
10.12.2015 21:00 2,4 C 95 % 1034,3 hPa 0,0 l/m 6,2 km/h (2 Bft) O-NO 59 0 min 0,000 mm 0,0 UV-I 0 W/m 1,7 C 2,4 C 9,7 km/h (2 Bft) 98,31 %
10.12.2015 21:05 2,4 C 94 % 1034,3 hPa 0,0 l/m 4,2 km/h (1 Bft) NO 52 0 min 0,000 mm 0,0 UV-I 0 W/m 1,5 C 2,4 C 9,7 km/h (2 Bft) 96,67 %
10.12.2015 21:10 2,4 C 94 % 1034,2 hPa 0,0 l/m 4,3 km/h (1 Bft) NO 38 0 min 0,000 mm 0,0 UV-I 0 W/m 1,5 C 2,4 C 9,7 km/h (2 Bft) 100,00 %
10.12.2015 21:15 2,3 C 94 % 1034,2 hPa 0,0 l/m 6,7 km/h (2 Bft) NO 42 0 min 0,000 mm 0,0 UV-I 0 W/m 1,4 C 2,0 C 11,3 km/h (2 Bft) 99,15 %
10.12.2015 21:20 2,3 C 95 % 1034,2 hPa 0,0 l/m 6,2 km/h (2 Bft) N-NO 25 0 min 0,000 mm 0,0 UV-I 0 W/m 1,6 C 2,3 C 9,7 km/h (2 Bft) 96,90 %
10.12.2015 21:25 2,3 C 94 % 1034,2 hPa 0,0 l/m 6,1 km/h (2 Bft) O-NO 57 0 min 0,000 mm 0,0 UV-I 0 W/m 1,4 C 2,3 C 8,0 km/h (2 Bft) 97,32 %
10.12.2015 21:30 2,2 C 94 % 1034,2 hPa 0,0 l/m 5,5 km/h (1 Bft) O-NO 69 0 min 0,000 mm 0,0 UV-I 0 W/m 1,3 C 2,2 C 9,7 km/h (2 Bft) 97,37 %
10.12.2015 21:35 2,2 C 94 % 1034,1 hPa 0,0 l/m 4,6 km/h (1 Bft) O-NO 59 0 min 0,000 mm 0,0 UV-I 0 W/m 1,3 C 2,2 C 8,0 km/h (2 Bft) 95,76 %
10.12.2015 21:40 2,2 C 94 % 1034,1 hPa 0,0 l/m 4,3 km/h (1 Bft) O-NO 65 0 min 0,000 mm 0,0 UV-I 0 W/m 1,3 C 2,2 C 8,0 km/h (2 Bft) 95,04 %
10.12.2015 21:45 2,1 C 95 % 1034,0 hPa 0,0 l/m 4,9 km/h (1 Bft) O-SO 105 0 min 0,000 mm 0,0 UV-I 0 W/m 1,4 C 2,1 C 6,4 km/h (2 Bft) 98,29 %
10.12.2015 21:50 2,0 C 94 % 1034,0 hPa 0,0 l/m 7,8 km/h (2 Bft) O-SO 121 0 min 0,000 mm 0,0 UV-I 0 W/m 1,1 C 0,6 C 14,5 km/h (3 Bft) 95,87 %
10.12.2015 21:55 1,9 C 95 % 1034,0 hPa 0,0 l/m 5,2 km/h (1 Bft) O 92 0 min 0,000 mm 0,0 UV-I 0 W/m 1,2 C 1,9 C 9,7 km/h (2 Bft) 96,58 %
10.12.2015 22:00 2,0 C 95 % 1033,8 hPa 0,0 l/m 4,8 km/h (1 Bft) NO 50 0 min 0,000 mm 0,0 UV-I 0 W/m 1,3 C 2,0 C 11,3 km/h (2 Bft) 97,46 %
10.12.2015 22:05 2,0 C 95 % 1033,8 hPa 0,0 l/m 4,5 km/h (1 Bft) NO 56 0 min 0,000 mm 0,0 UV-I 0 W/m 1,3 C 2,0 C 8,0 km/h (2 Bft) 99,11 %
10.12.2015 22:10 2,0 C 95 % 1033,9 hPa 0,0 l/m 2,8 km/h (1 Bft) O-NO 61 0 min 0,000 mm 0,0 UV-I 0 W/m 1,3 C 2,0 C 6,4 km/h (2 Bft) 98,25 %
10.12.2015 22:15 1,9 C 95 % 1033,8 hPa 0,0 l/m 3,4 km/h (1 Bft) O-SO 113 0 min 0,000 mm 0,0 UV-I 0 W/m 1,2 C 1,9 C 9,7 km/h (2 Bft) 100,00 %
10.12.2015 22:20 1,9 C 95 % 1033,8 hPa 0,0 l/m 3,7 km/h (1 Bft) SO 137 0 min 0,000 mm 0,0 UV-I 0 W/m 1,2 C 1,9 C 9,7 km/h (2 Bft) 98,35 %
10.12.2015 22:25 1,8 C 95 % 1033,6 hPa 0,0 l/m 4,6 km/h (1 Bft) O-SO 104 0 min 0,000 mm 0,0 UV-I 0 W/m 1,1 C 1,8 C 6,4 km/h (2 Bft) 98,25 %
10.12.2015 22:30 1,8 C 95 % 1033,5 hPa 0,0 l/m 7,1 km/h (2 Bft) O-NO 63 0 min 0,000 mm 0,0 UV-I 0 W/m 1,1 C 1,1 C 12,9 km/h (3 Bft) 99,08 %
10.12.2015 22:35 1,8 C 94 % 1033,4 hPa 0,0 l/m 6,6 km/h (2 Bft) O-NO 63 0 min 0,000 mm 0,0 UV-I 0 W/m 0,9 C 1,6 C 14,5 km/h (3 Bft) 96,75 %
10.12.2015 22:40 1,8 C 95 % 1033,4 hPa 0,0 l/m 6,3 km/h (2 Bft) NO 54 0 min 0,000 mm 0,0 UV-I 0 W/m 1,1 C 1,8 C 11,3 km/h (2 Bft) 99,12 %
10.12.2015 22:45 1,8 C 95 % 1033,4 hPa 0,0 l/m 4,2 km/h (1 Bft) NO 44 0 min 0,000 mm 0,0 UV-I 0 W/m 1,1 C 1,8 C 8,0 km/h (2 Bft) 99,11 %
10.12.2015 22:50 1,8 C 95 % 1033,4 hPa 0,0 l/m 5,2 km/h (1 Bft) O-NO 67 0 min 0,000 mm 0,0 UV-I 0 W/m 1,1 C 1,8 C 11,3 km/h (2 Bft) 100,00 %
10.12.2015 22:55 1,8 C 94 % 1033,4 hPa 0,0 l/m 6,6 km/h (2 Bft) O 80 0 min 0,000 mm 0,0 UV-I 0 W/m 0,9 C 1,6 C 12,9 km/h (3 Bft) 100,00 %
10.12.2015 23:00 1,8 C 94 % 1033,3 hPa 0,0 l/m 5,6 km/h (1 Bft) N-NO 32 0 min 0,000 mm 0,0 UV-I 0 W/m 0,9 C 1,8 C 9,7 km/h (2 Bft) 98,39 %
10.12.2015 23:05 1,8 C 94 % 1033,3 hPa 0,0 l/m 2,7 km/h (1 Bft) O-NO 65 0 min 0,000 mm 0,0 UV-I 0 W/m 0,9 C 1,8 C 6,4 km/h (2 Bft) 99,10 %
10.12.2015 23:10 1,8 C 94 % 1033,3 hPa 0,0 l/m 0,8 km/h (0 Bft) O-NO 65 0 min 0,000 mm 0,0 UV-I 0 W/m 0,9 C 1,8 C 3,2 km/h (1 Bft) 99,19 %
10.12.2015 23:15 1,8 C 94 % 1033,2 hPa 0,0 l/m 2,5 km/h (1 Bft) S-SO 150 0 min 0,000 mm 0,0 UV-I 0 W/m 0,9 C 1,8 C 6,4 km/h (2 Bft) 100,00 %
10.12.2015 23:20 1,7 C 94 % 1033,2 hPa 0,0 l/m 0,9 km/h (0 Bft) S-SO 147 0 min 0,000 mm 0,0 UV-I 0 W/m 0,8 C 1,7 C 4,8 km/h (1 Bft) 98,48 %
10.12.2015 23:25 1,7 C 94 % 1033,1 hPa 0,0 l/m 0,7 km/h (0 Bft) S-SO 147 0 min 0,000 mm 0,0 UV-I 0 W/m 0,8 C 1,7 C 4,8 km/h (1 Bft) 99,21 %
10.12.2015 23:30 1,7 C 94 % 1033,2 hPa 0,0 l/m 2,3 km/h (1 Bft) O-SO 109 0 min 0,000 mm 0,0 UV-I 0 W/m 0,8 C 1,7 C 4,8 km/h (1 Bft) 98,29 %
10.12.2015 23:35 1,7 C 94 % 1033,2 hPa 0,0 l/m 4,8 km/h (1 Bft) O-SO 105 0 min 0,000 mm 0,0 UV-I 0 W/m 0,8 C 1,7 C 11,3 km/h (2 Bft) 96,43 %
10.12.2015 23:40 1,7 C 93 % 1033,2 hPa 0,0 l/m 2,8 km/h (1 Bft) O-SO 120 0 min 0,000 mm 0,0 UV-I 0 W/m 0,7 C 1,7 C 6,4 km/h (2 Bft) 97,52 %
10.12.2015 23:45 1,7 C 93 % 1033,2 hPa 0,0 l/m 3,6 km/h (1 Bft) O-SO 116 0 min 0,000 mm 0,0 UV-I 0 W/m 0,7 C 1,7 C 9,7 km/h (2 Bft) 94,29 %
10.12.2015 23:50 1,7 C 94 % 1033,2 hPa 0,0 l/m 1,7 km/h (1 Bft) O-SO 111 0 min 0,000 mm 0,0 UV-I 0 W/m 0,8 C 1,7 C 4,8 km/h (1 Bft) 97,46 %
10.12.2015 23:55 1,7 C 94 % 1033,2 hPa 0,0 l/m 1,6 km/h (1 Bft) NO 42 0 min 0,000 mm 0,0 UV-I 0 W/m 0,8 C 1,7 C 4,8 km/h (1 Bft) 97,56 %
_ Min-Zeit 06:55 23:40 23:25 - 05:15 - - - - - - 06:30 06:30 05:15 23:45
Minimum _ 0,1 C 93 % 1033,1 hPa - 0,0 km/h (0 Bft) - - - - - - -0,1 C 0,2 C 0,0 km/h (0 Bft) 94,29 %
_ Max-Zeit 00:00 07:00 00:10 00:00 00:05 - - 08:50 10:00 00:00 09:45 00:35 00:00 21:50 01:55
Maximum _ 4,6 C 99 % 1039,7 hPa 0,0 l/m 8,0 km/h
W-SW (2 Bft)
- - 5 min 0,051 mm 0,0 UV-I 177 W/m 4,1 C 4,6 C 14,5 km/h
O (3 Bft)
100,00 %
Durchschnitt _ 2,5 C 97 % 1037,4 hPa #0,0 l/m 3,0 km/h (1 Bft) NO - #55 min. #0,203 mm 0,0 UV-I 59 W/m 2,1 C 2,5 C 6,1 km/h (2 Bft) 98,30 %